createdAt,value
2018-09-08T00:00:30.233Z,67.97
2018-09-08T00:03:01.308Z,68.57
2018-09-08T00:05:31.731Z,69.27
2018-09-08T00:08:01.078Z,69.56
2018-09-08T00:10:30.417Z,69.40
2018-09-08T00:12:59.996Z,69.87
2018-09-08T00:15:34.492Z,69.63
2018-09-08T00:18:09.140Z,69.51
2018-09-08T00:20:43.764Z,69.94
2018-09-08T00:23:18.432Z,69.56
2018-09-08T00:25:53.042Z,69.14
2018-09-08T00:28:27.817Z,69.66
2018-09-08T00:30:57.355Z,69.47
2018-09-08T00:33:26.715Z,69.23
2018-09-08T00:35:56.341Z,69.48
2018-09-08T00:38:25.810Z,69.02
2018-09-08T00:40:55.074Z,69.52
2018-09-08T00:43:24.479Z,69.81
2018-09-08T00:45:53.787Z,69.13
2018-09-08T00:48:23.234Z,69.05
2018-09-08T00:50:52.620Z,68.64
2018-09-08T00:53:22.333Z,68.58
2018-09-08T00:55:52.110Z,68.10
2018-09-08T00:58:21.460Z,67.83
2018-09-08T01:00:51.486Z,67.35
2018-09-08T01:03:20.892Z,67.56
2018-09-08T01:05:50.475Z,66.57
2018-09-08T01:08:19.886Z,66.59
2018-09-08T01:10:49.375Z,65.97
2018-09-08T01:13:19.294Z,65.47
2018-09-08T01:15:48.953Z,65.27
2018-09-08T01:18:18.382Z,64.21
2018-09-08T01:20:47.847Z,63.47
2018-09-08T01:23:17.385Z,63.29
2018-09-08T01:25:46.754Z,62.19
2018-09-08T01:28:16.419Z,62.21
2018-09-08T01:30:46.141Z,62.09
2018-09-08T01:33:15.980Z,61.23
2018-09-08T01:35:46.208Z,61.05
2018-09-08T01:38:15.683Z,61.95
2018-09-08T01:40:44.988Z,61.54
2018-09-08T01:43:14.469Z,60.67
2018-09-08T01:45:43.848Z,60.61
2018-09-08T01:48:13.189Z,61.53
2018-09-08T01:50:42.554Z,61.20
2018-09-08T01:53:12.051Z,61.53
2018-09-08T01:55:41.702Z,62.33
2018-09-08T01:58:11.540Z,61.49
2018-09-08T02:00:40.929Z,61.85
2018-09-08T02:03:10.513Z,60.99
2018-09-08T02:05:39.928Z,61.60
2018-09-08T02:08:09.524Z,61.77
2018-09-08T02:10:39.134Z,61.50
2018-09-08T02:13:08.598Z,61.90
2018-09-08T02:15:38.054Z,62.40
2018-09-08T02:18:07.394Z,63.10
2018-09-08T02:20:37.048Z,63.27
2018-09-08T02:23:06.489Z,63.75
2018-09-08T02:25:36.101Z,63.37
2018-09-08T02:28:05.530Z,62.95
2018-09-08T02:30:34.855Z,63.01
2018-09-08T02:33:04.365Z,62.63
2018-09-08T02:35:33.920Z,62.70
2018-09-08T02:38:03.469Z,62.70
2018-09-08T02:40:32.935Z,63.63
2018-09-08T02:43:02.423Z,63.48
2018-09-08T02:45:31.903Z,63.75
2018-09-08T02:48:01.281Z,64.19
2018-09-08T02:50:31.654Z,63.91
2018-09-08T02:52:59.527Z,64.28
2018-09-08T02:55:27.621Z,63.53
2018-09-08T02:57:56.183Z,63.89
2018-09-08T03:00:24.079Z,64.41
2018-09-08T03:02:52.290Z,64.89
2018-09-08T03:05:20.340Z,64.90
2018-09-08T03:07:48.572Z,64.17
2018-09-08T03:10:16.909Z,64.57
2018-09-08T03:12:44.733Z,64.87
2018-09-08T03:15:12.498Z,63.88
2018-09-08T03:17:40.260Z,63.90
2018-09-08T03:20:08.116Z,64.34
2018-09-08T03:22:35.948Z,64.47
2018-09-08T03:25:03.785Z,64.00
2018-09-08T03:27:31.860Z,64.44
2018-09-08T03:29:59.700Z,63.75
2018-09-08T03:32:27.451Z,64.23
2018-09-08T03:34:55.263Z,63.85
2018-09-08T03:37:23.149Z,64.06
2018-09-08T03:39:50.948Z,63.69
2018-09-08T03:42:18.747Z,63.80
2018-09-08T03:44:46.511Z,63.58
2018-09-08T03:47:14.275Z,64.39
2018-09-08T03:49:42.600Z,64.97
2018-09-08T03:52:10.419Z,64.42
2018-09-08T03:54:38.178Z,64.91
2018-09-08T03:57:05.959Z,64.31
2018-09-08T03:59:33.765Z,64.66
2018-09-08T04:02:02.051Z,64.21
2018-09-08T04:04:31.435Z,64.72
2018-09-08T04:07:00.763Z,64.55
2018-09-08T04:09:30.126Z,65.58
2018-09-08T04:11:59.946Z,64.65
2018-09-08T04:14:29.282Z,64.14
2018-09-08T04:16:58.644Z,64.34
2018-09-08T04:19:28.012Z,65.31
2018-09-08T04:21:57.611Z,65.29
2018-09-08T04:24:26.921Z,65.40
2018-09-08T04:26:56.362Z,65.05
2018-09-08T04:29:25.735Z,65.76
2018-09-08T04:31:55.115Z,65.04
2018-09-08T04:34:31.326Z,65.79
2018-09-08T04:37:00.705Z,65.80
2018-09-08T04:39:30.006Z,65.76
2018-09-08T04:41:59.330Z,65.80
2018-09-08T04:44:28.683Z,66.05
2018-09-08T04:46:57.973Z,65.89
2018-09-08T04:49:27.309Z,65.40
2018-09-08T04:51:56.718Z,65.24
2018-09-08T04:54:26.115Z,65.56
2018-09-08T04:56:55.695Z,65.39
2018-09-08T04:59:24.960Z,64.99
2018-09-08T05:01:54.344Z,65.80
2018-09-08T05:04:23.857Z,66.10
2018-09-08T05:06:53.560Z,65.21
2018-09-08T05:09:22.810Z,65.81
2018-09-08T05:11:52.145Z,65.08
2018-09-08T05:14:21.442Z,65.00
2018-09-08T05:16:50.774Z,65.13
2018-09-08T05:19:20.632Z,64.60
2018-09-08T05:21:49.988Z,65.16
2018-09-08T05:24:19.391Z,65.37
2018-09-08T05:26:48.809Z,64.17
2018-09-08T05:29:18.139Z,64.63
2018-09-08T05:31:47.780Z,63.82
2018-09-08T05:34:17.149Z,64.18
2018-09-08T05:36:46.561Z,63.88
2018-09-08T05:39:16.807Z,64.25
2018-09-08T05:41:46.350Z,64.57
2018-09-08T05:44:15.661Z,63.58
2018-09-08T05:46:45.102Z,62.74
2018-09-08T05:49:14.505Z,63.12
2018-09-08T05:51:44.314Z,63.18
2018-09-08T05:54:14.355Z,62.70
2018-09-08T05:56:43.732Z,63.63
2018-09-08T05:59:13.234Z,62.74
2018-09-08T06:01:42.620Z,62.93
2018-09-08T06:04:12.293Z,63.26
2018-09-08T06:06:42.346Z,62.67
2018-09-08T06:09:11.807Z,63.12
2018-09-08T06:11:42.164Z,62.78
2018-09-08T06:14:13.375Z,62.76
2018-09-08T06:16:42.736Z,63.31
2018-09-08T06:19:12.172Z,63.45
2018-09-08T06:21:41.559Z,62.95
2018-09-08T06:24:11.565Z,61.37
2018-09-08T06:26:41.870Z,61.05
2018-09-08T06:29:11.960Z,60.97
2018-09-08T06:31:43.314Z,61.40
2018-09-08T06:34:12.879Z,61.50
2018-09-08T06:36:42.824Z,61.64
2018-09-08T06:39:14.296Z,60.17
2018-09-08T06:41:44.282Z,60.80
2018-09-08T06:44:13.724Z,61.05
2018-09-08T06:46:43.164Z,59.67
2018-09-08T06:49:12.565Z,59.44
2018-09-08T06:51:41.990Z,59.23
2018-09-08T06:54:11.533Z,58.82
2018-09-08T06:56:40.977Z,58.25
2018-09-08T06:59:10.387Z,57.90
2018-09-08T07:01:40.358Z,56.57
2018-09-08T07:04:09.927Z,57.58
2018-09-08T07:06:39.425Z,55.54
2018-09-08T07:11:46.627Z,52.74
2018-09-08T07:14:16.087Z,53.48
2018-09-08T07:16:45.501Z,51.74
2018-09-08T07:19:14.872Z,50.85
2018-09-08T07:21:44.756Z,51.05
2018-09-08T07:24:14.266Z,51.69
2018-09-08T07:26:43.733Z,50.15
2018-09-08T07:29:13.290Z,49.63
2018-09-08T07:31:42.836Z,48.92
2018-09-08T07:34:12.422Z,48.74
2018-09-08T07:36:42.185Z,48.62
2018-09-08T07:39:12.203Z,48.30
2018-09-08T07:41:41.782Z,46.16
2018-09-08T07:44:11.592Z,43.89
2018-09-08T07:46:41.204Z,43.25
2018-09-08T07:49:10.714Z,42.76
2018-09-08T07:51:40.143Z,44.45
2018-09-08T07:54:10.036Z,43.62
2018-09-08T07:56:39.460Z,43.23
2018-09-08T07:59:08.950Z,39.96
2018-09-08T08:01:38.333Z,39.09
2018-09-08T08:04:07.726Z,40.40
2018-09-08T08:06:37.455Z,38.50
2018-09-08T08:09:09.009Z,35.81
2018-09-08T08:11:38.658Z,34.13
2018-09-08T08:14:08.270Z,35.95
2018-09-08T08:16:37.779Z,36.20
2018-09-08T08:19:07.285Z,37.33
2018-09-08T08:21:36.779Z,36.52
2018-09-08T08:24:06.249Z,35.18
2018-09-08T08:26:36.446Z,38.82
2018-09-08T08:29:06.035Z,38.36
2018-09-08T08:31:35.771Z,37.33
2018-09-08T08:34:05.293Z,34.72
2018-09-08T08:36:34.881Z,33.38
2018-09-08T08:39:04.451Z,32.44
2018-09-08T08:41:34.059Z,33.10
2018-09-08T08:44:03.461Z,33.27
2018-09-08T08:46:32.887Z,34.60
2018-09-08T08:49:02.590Z,32.25
2018-09-08T08:53:51.341Z,34.20
2018-09-08T08:56:20.870Z,31.43
2018-09-08T08:58:50.598Z,31.82
2018-09-08T09:01:20.983Z,31.41
2018-09-08T09:03:50.434Z,33.17
2018-09-08T09:06:19.832Z,34.09
2018-09-08T09:08:50.128Z,34.25
2018-09-08T09:11:19.717Z,39.40
2018-09-08T09:13:49.076Z,40.72
2018-09-08T09:16:18.666Z,42.44
2018-09-08T09:19:05.053Z,43.94
2018-09-08T09:21:51.262Z,43.83
2018-09-08T09:24:38.767Z,43.03
2018-09-08T09:27:07.543Z,42.21
2018-09-08T09:29:36.919Z,43.32
2018-09-08T09:32:07.018Z,40.04
2018-09-08T09:34:36.432Z,32.68
2018-09-08T09:37:05.937Z,33.43
2018-09-08T09:39:35.472Z,34.49
2018-09-08T09:42:05.100Z,36.60
2018-09-08T09:44:34.697Z,31.79
2018-09-08T09:47:04.406Z,29.47
2018-09-08T09:49:33.844Z,30.44
2018-09-08T09:52:03.430Z,30.35
2018-09-08T09:54:33.016Z,27.68
2018-09-08T09:57:02.351Z,26.93
2018-09-08T09:59:31.783Z,30.22
2018-09-08T10:02:03.902Z,35.53
2018-09-08T10:04:33.283Z,32.39
2018-09-08T10:07:02.732Z,30.23
2018-09-08T10:09:34.919Z,29.42
2018-09-08T10:12:04.379Z,29.35
2018-09-08T10:14:33.810Z,26.91
2018-09-08T10:17:03.205Z,25.39
2018-09-08T10:19:32.753Z,27.39
2018-09-08T10:22:02.181Z,30.00
2018-09-08T10:24:31.534Z,25.49
2018-09-08T10:27:02.412Z,24.44
2018-09-08T10:29:31.922Z,28.34
2018-09-08T10:32:01.623Z,29.58
2018-09-08T10:34:30.957Z,30.75
2018-09-08T10:37:00.528Z,32.52
2018-09-08T10:39:30.046Z,30.49
2018-09-08T10:41:59.365Z,27.24
2018-09-08T10:44:28.735Z,25.94
2018-09-08T10:46:58.380Z,23.99
2018-09-08T10:49:28.092Z,20.74
2018-09-08T10:52:10.965Z,25.84
2018-09-08T10:54:40.585Z,29.16
2018-09-08T10:57:10.000Z,27.75
2018-09-08T10:59:39.474Z,27.79
2018-09-08T11:02:10.050Z,24.45
2018-09-08T11:04:39.229Z,21.81
2018-09-08T11:07:08.886Z,19.88
2018-09-08T11:09:38.630Z,19.91
2018-09-08T11:12:08.156Z,22.74
2018-09-08T11:14:37.774Z,25.18
2018-09-08T11:17:07.210Z,27.54
2018-09-08T11:19:36.861Z,29.22
2018-09-08T11:22:06.326Z,30.35
2018-09-08T11:24:35.850Z,30.51
2018-09-08T11:27:05.730Z,31.83
2018-09-08T11:29:35.181Z,33.34
2018-09-08T11:32:05.279Z,32.24
2018-09-08T11:34:34.976Z,32.11
2018-09-08T11:37:04.696Z,31.74
2018-09-08T11:39:35.200Z,32.39
2018-09-08T11:42:04.757Z,30.36
2018-09-08T11:44:34.190Z,28.78
2018-09-08T11:47:03.663Z,29.44
2018-09-08T11:49:33.143Z,30.86
2018-09-08T11:52:02.612Z,31.18
2018-09-08T11:54:32.133Z,30.93
2018-09-08T11:57:01.612Z,30.61
2018-09-08T11:59:31.471Z,31.78
2018-09-08T12:02:00.999Z,27.90
2018-09-08T12:04:30.340Z,27.51
2018-09-08T12:06:59.842Z,26.90
2018-09-08T12:09:29.244Z,28.60
2018-09-08T12:11:59.094Z,30.93
2018-09-08T12:14:28.491Z,31.14
2018-09-08T12:16:57.927Z,33.17
2018-09-08T12:19:28.048Z,31.03
2018-09-08T12:21:57.618Z,27.61
2018-09-08T12:24:26.979Z,26.72
2018-09-08T12:26:56.402Z,29.39
2018-09-08T12:29:25.849Z,31.54
2018-09-08T12:31:55.192Z,34.05
2018-09-08T12:34:24.805Z,35.43
2018-09-08T12:36:54.129Z,34.71
2018-09-08T12:39:23.610Z,33.95
2018-09-08T12:41:53.136Z,31.18
2018-09-08T12:44:23.008Z,29.94
2018-09-08T12:46:52.506Z,27.52
2018-09-08T12:49:22.029Z,25.00
2018-09-08T12:51:51.675Z,22.18
2018-09-08T12:54:21.125Z,22.95
2018-09-08T12:56:51.444Z,26.47
2018-09-08T12:59:21.021Z,29.64
2018-09-08T13:01:50.490Z,29.23
2018-09-08T13:04:19.972Z,28.20
2018-09-08T13:06:49.677Z,29.97
2018-09-08T13:09:19.099Z,30.47
2018-09-08T13:11:48.632Z,30.71
2018-09-08T13:14:18.068Z,30.69
2018-09-08T13:16:47.529Z,30.30
2018-09-08T13:19:16.898Z,30.72
2018-09-08T13:21:46.399Z,28.71
2018-09-08T13:24:16.028Z,26.02
2018-09-08T13:26:45.727Z,27.71
2018-09-08T13:29:15.198Z,29.70
2018-09-08T13:31:44.619Z,27.52
2018-09-08T13:34:13.955Z,26.72
2018-09-08T13:36:43.352Z,24.09
2018-09-08T13:39:12.657Z,26.71
2018-09-08T13:41:42.061Z,26.42
2018-09-08T13:44:11.450Z,27.60
2018-09-08T13:46:40.767Z,26.83
2018-09-08T13:49:10.186Z,25.11
2018-09-08T13:51:40.188Z,25.00
2018-09-08T13:54:09.544Z,26.17
2018-09-08T13:56:38.866Z,27.31
2018-09-08T13:59:09.249Z,29.56
2018-09-08T14:01:38.884Z,30.60
2018-09-08T14:04:08.426Z,29.32
2018-09-08T14:06:38.221Z,28.83
2018-09-08T14:09:08.129Z,29.48
2018-09-08T14:11:37.517Z,30.54
2018-09-08T14:14:07.136Z,30.08
2018-09-08T14:16:37.113Z,29.95
2018-09-08T14:19:06.848Z,30.67
2018-09-08T14:21:36.255Z,30.27
2018-09-08T14:24:05.654Z,31.04
2018-09-08T14:26:34.983Z,32.39
2018-09-08T14:29:04.379Z,33.06
2018-09-08T14:31:34.049Z,33.36
2018-09-08T14:34:03.562Z,32.81
2018-09-08T14:36:33.390Z,32.03
2018-09-08T14:39:02.744Z,30.81
2018-09-08T14:41:32.181Z,32.56
2018-09-08T14:44:01.572Z,34.61
2018-09-08T14:46:31.040Z,33.89
2018-09-08T14:49:00.347Z,32.94
2018-09-08T14:51:29.812Z,32.64
2018-09-08T14:53:59.235Z,33.24
2018-09-08T14:56:28.663Z,32.74
2018-09-08T14:58:58.354Z,33.25
2018-09-08T15:01:27.739Z,34.32
2018-09-08T15:03:57.194Z,33.28
2018-09-08T15:06:26.556Z,32.99
2018-09-08T15:08:55.960Z,32.84
2018-09-08T15:11:25.350Z,33.51
2018-09-08T15:13:55.018Z,33.76
2018-09-08T15:16:24.365Z,33.14
2018-09-08T15:18:53.717Z,33.58
2018-09-08T15:21:23.540Z,33.22
2018-09-08T15:23:54.400Z,33.23
2018-09-08T15:26:23.755Z,34.36
2018-09-08T15:28:53.268Z,33.97
2018-09-08T15:31:22.586Z,33.89
2018-09-08T15:33:52.046Z,34.25
2018-09-08T15:36:21.412Z,34.52
2018-09-08T15:38:50.760Z,35.77
2018-09-08T15:41:20.601Z,34.37
2018-09-08T15:43:50.253Z,34.56
2018-09-08T15:46:19.671Z,35.30
2018-09-08T15:48:49.045Z,35.78
2018-09-08T15:51:18.436Z,35.71
2018-09-08T15:53:47.824Z,36.17
2018-09-08T15:56:17.375Z,36.48
2018-09-08T15:58:46.886Z,36.87
2018-09-08T16:01:16.316Z,36.67
2018-09-08T16:03:45.626Z,36.95
2018-09-08T16:06:15.337Z,36.79
2018-09-08T16:08:44.759Z,36.61
2018-09-08T16:11:14.990Z,36.52
2018-09-08T16:13:44.325Z,37.72
2018-09-08T16:16:13.708Z,38.13
2018-09-08T16:18:43.232Z,38.19
2018-09-08T16:21:12.639Z,37.73
2018-09-08T16:23:41.997Z,39.11
2018-09-08T16:26:11.373Z,39.60
2018-09-08T16:28:41.174Z,39.17
2018-09-08T16:31:10.456Z,39.91
2018-09-08T16:33:40.105Z,39.38
2018-09-08T16:36:09.568Z,40.29
2018-09-08T16:38:38.955Z,40.82
2018-09-08T16:41:08.406Z,39.85
2018-09-08T16:43:37.958Z,40.38
2018-09-08T16:46:07.627Z,40.02
2018-09-08T16:48:37.123Z,39.95
2018-09-08T16:51:07.081Z,39.80
2018-09-08T16:53:36.455Z,39.78
2018-09-08T16:56:05.791Z,40.35
2018-09-08T16:58:35.171Z,39.94
2018-09-08T17:01:04.578Z,40.49
2018-09-08T17:03:33.970Z,40.06
2018-09-08T17:06:03.522Z,40.70
2018-09-08T17:08:33.016Z,40.81
2018-09-08T17:11:02.482Z,40.45
2018-09-08T17:13:32.275Z,40.29
2018-09-08T17:16:01.706Z,41.06
2018-09-08T17:18:31.108Z,41.31
2018-09-08T17:21:00.549Z,41.56
2018-09-08T17:23:29.953Z,40.58
2018-09-08T17:25:59.330Z,41.17
2018-09-08T17:28:28.763Z,41.19
2018-09-08T17:30:58.089Z,40.76
2018-09-08T17:33:27.493Z,40.33
2018-09-08T17:35:56.963Z,40.58
2018-09-08T17:38:26.327Z,40.43
2018-09-08T17:40:55.681Z,40.98
2018-09-08T17:43:25.081Z,40.62
2018-09-08T17:45:54.448Z,40.79
2018-09-08T17:48:23.962Z,40.79
2018-09-08T17:50:53.384Z,41.37
2018-09-08T17:53:22.836Z,41.55
2018-09-08T17:55:52.160Z,41.29
2018-09-08T17:58:22.091Z,41.54
2018-09-08T18:00:51.460Z,41.46
2018-09-08T18:03:20.787Z,41.76
2018-09-08T18:05:50.226Z,41.55
2018-09-08T18:08:23.680Z,41.23
2018-09-08T18:10:53.348Z,41.78
2018-09-08T18:13:23.359Z,41.89
2018-09-08T18:15:52.782Z,41.67
2018-09-08T18:18:22.781Z,42.11
2018-09-08T18:20:52.635Z,42.05
2018-09-08T18:23:22.024Z,41.86
2018-09-08T18:25:51.416Z,42.03
2018-09-08T18:28:20.877Z,42.39
2018-09-08T18:30:50.247Z,43.50
2018-09-08T18:33:20.111Z,42.90
2018-09-08T18:35:51.746Z,44.05
2018-09-08T18:38:21.284Z,43.57
2018-09-08T18:40:50.652Z,42.92
2018-09-08T18:43:21.161Z,44.31
2018-09-08T18:45:50.586Z,44.00
2018-09-08T18:48:19.973Z,43.34
2018-09-08T18:50:49.433Z,44.40
2018-09-08T18:53:19.008Z,44.32
2018-09-08T18:55:49.241Z,44.97
2018-09-08T18:58:18.606Z,44.40
2018-09-08T19:00:49.514Z,45.33
2018-09-08T19:03:18.963Z,44.97
2018-09-08T19:05:48.919Z,45.43
2018-09-08T19:08:18.372Z,45.63
2018-09-08T19:10:48.118Z,46.09
2018-09-08T19:13:19.270Z,45.70
2018-09-08T19:15:48.670Z,46.90
2018-09-08T19:18:18.124Z,46.57
2018-09-08T19:20:48.108Z,47.12
2018-09-08T19:23:17.494Z,47.22
2018-09-08T19:25:47.037Z,47.89
2018-09-08T19:28:16.625Z,48.40
2018-09-08T19:30:46.717Z,48.32
2018-09-08T19:33:16.536Z,47.99
2018-09-08T19:35:46.208Z,49.21
2018-09-08T19:38:15.611Z,48.66
2018-09-08T19:40:47.943Z,48.56
2018-09-08T19:43:17.335Z,48.33
2018-09-08T19:45:46.819Z,47.37
2018-09-08T19:48:18.623Z,47.15
2018-09-08T19:50:48.049Z,47.96
2018-09-08T19:53:22.679Z,48.08
2018-09-08T19:55:52.194Z,48.42
2018-09-08T19:58:26.943Z,48.11
2018-09-08T20:00:56.336Z,48.54
2018-09-08T20:03:26.404Z,48.81
2018-09-08T20:05:55.827Z,47.95
2018-09-08T20:08:25.246Z,48.90
2018-09-08T20:10:54.957Z,48.88
2018-09-08T20:13:25.617Z,49.03
2018-09-08T20:15:55.089Z,49.79
2018-09-08T20:18:24.472Z,49.24
2018-09-08T20:20:54.297Z,50.11
2018-09-08T20:23:23.877Z,49.92
2018-09-08T20:25:53.375Z,50.44
2018-09-08T20:28:22.915Z,50.34
2018-09-08T20:30:52.312Z,49.73
2018-09-08T20:33:21.650Z,50.42
2018-09-08T20:35:51.111Z,50.48
2018-09-08T20:38:20.513Z,49.73
2018-09-08T20:40:50.016Z,50.24
2018-09-08T20:43:20.004Z,49.95
2018-09-08T20:45:49.467Z,50.77
2018-09-08T20:48:18.888Z,50.37
2018-09-08T20:50:48.393Z,50.91
2018-09-08T20:53:17.885Z,51.13
2018-09-08T20:55:47.164Z,52.09
2018-09-08T20:58:16.526Z,51.79
2018-09-08T21:00:45.900Z,52.18
2018-09-08T21:03:15.379Z,51.22
2018-09-08T21:05:45.047Z,51.64
2018-09-08T21:08:14.472Z,51.28
2018-09-08T21:10:43.958Z,51.55
2018-09-08T21:13:13.527Z,52.25
2018-09-08T21:15:43.435Z,51.37
2018-09-08T21:18:12.826Z,51.95
2018-09-08T21:20:42.260Z,51.73
2018-09-08T21:23:11.640Z,52.08
2018-09-08T21:25:41.038Z,52.33
2018-09-08T21:28:10.763Z,52.27
2018-09-08T21:30:40.541Z,52.31
2018-09-08T21:33:10.638Z,51.92
2018-09-08T21:35:40.410Z,52.89
2018-09-08T21:38:10.214Z,53.15
2018-09-08T21:40:39.600Z,52.84
2018-09-08T21:43:09.170Z,52.92
2018-09-08T21:45:38.538Z,52.38
2018-09-08T21:48:07.960Z,52.34
2018-09-08T21:50:37.933Z,52.78
2018-09-08T21:53:07.353Z,53.22
2018-09-08T21:55:36.761Z,53.53
2018-09-08T21:58:06.951Z,52.66
2018-09-08T22:00:36.846Z,53.41
2018-09-08T22:03:06.284Z,53.01
2018-09-08T22:05:35.804Z,53.89
2018-09-08T22:08:05.230Z,53.34
2018-09-08T22:10:34.690Z,53.54
2018-09-08T22:13:04.663Z,53.00
2018-09-08T22:15:34.066Z,53.35
2018-09-08T22:18:03.628Z,53.61
2018-09-08T22:20:33.116Z,53.34
2018-09-08T22:23:02.476Z,54.16
2018-09-08T22:25:31.945Z,54.47
2018-09-08T22:28:01.363Z,55.42
2018-09-08T22:30:30.803Z,55.35
2018-09-08T22:33:00.257Z,55.88
2018-09-08T22:35:29.735Z,55.38
2018-09-08T22:37:59.152Z,55.10
2018-09-08T22:40:28.641Z,56.23
2018-09-08T22:42:58.008Z,56.12
2018-09-08T22:45:27.416Z,56.30
2018-09-08T22:47:57.289Z,55.84
2018-09-08T22:50:26.710Z,56.37
2018-09-08T22:52:56.238Z,56.08
2018-09-08T22:55:25.636Z,56.32
2018-09-08T22:57:55.381Z,57.73
2018-09-08T23:00:24.886Z,56.38
2018-09-08T23:02:54.441Z,56.11
2018-09-08T23:05:23.899Z,56.59
2018-09-08T23:07:53.224Z,56.15
2018-09-08T23:10:22.619Z,55.75
2018-09-08T23:12:52.020Z,56.05
2018-09-08T23:15:21.857Z,56.06
2018-09-08T23:17:51.683Z,56.23
2018-09-08T23:20:21.361Z,56.87
2018-09-08T23:22:51.053Z,56.75
2018-09-08T23:25:20.514Z,56.68
2018-09-08T23:27:49.812Z,56.52
2018-09-08T23:30:19.274Z,56.11
2018-09-08T23:32:48.636Z,56.01
2018-09-08T23:35:18.067Z,56.58
2018-09-08T23:37:47.661Z,57.22
2018-09-08T23:40:17.238Z,56.00
2018-09-08T23:42:47.163Z,55.87
2018-09-08T23:45:16.682Z,55.75
2018-09-08T23:47:46.199Z,55.89
2018-09-08T23:50:15.635Z,56.88
2018-09-08T23:52:44.997Z,56.45
2018-09-08T23:55:14.467Z,56.88
2018-09-08T23:57:43.863Z,57.65
